sensor_id;sensor_type;location;lat;lon;timestamp;temperature;humidity
9103;DHT22;4587;51.434;6.788;2022-07-18T00:01:54;19.90;92.60
9103;DHT22;4587;51.434;6.788;2022-07-18T00:04:19;19.90;92.70
9103;DHT22;4587;51.434;6.788;2022-07-18T00:06:45;19.90;92.60
9103;DHT22;4587;51.434;6.788;2022-07-18T00:09:11;19.80;93.00
9103;DHT22;4587;51.434;6.788;2022-07-18T00:11:36;19.80;93.20
9103;DHT22;4587;51.434;6.788;2022-07-18T00:14:02;19.80;93.20
9103;DHT22;4587;51.434;6.788;2022-07-18T00:16:27;19.80;93.10
9103;DHT22;4587;51.434;6.788;2022-07-18T00:18:54;19.80;93.00
9103;DHT22;4587;51.434;6.788;2022-07-18T00:21:20;19.80;93.30
9103;DHT22;4587;51.434;6.788;2022-07-18T00:23:46;19.70;93.50
9103;DHT22;4587;51.434;6.788;2022-07-18T00:26:11;19.70;93.90
9103;DHT22;4587;51.434;6.788;2022-07-18T00:28:37;19.70;94.10
9103;DHT22;4587;51.434;6.788;2022-07-18T00:31:03;19.60;94.10
9103;DHT22;4587;51.434;6.788;2022-07-18T00:33:29;19.60;94.40
9103;DHT22;4587;51.434;6.788;2022-07-18T00:35:54;19.60;94.50
9103;DHT22;4587;51.434;6.788;2022-07-18T00:38:20;19.50;94.90
9103;DHT22;4587;51.434;6.788;2022-07-18T00:40:45;19.50;95.30
9103;DHT22;4587;51.434;6.788;2022-07-18T00:43:14;19.50;95.80
9103;DHT22;4587;51.434;6.788;2022-07-18T00:45:44;19.40;96.10
9103;DHT22;4587;51.434;6.788;2022-07-18T00:48:10;19.40;96.00
9103;DHT22;4587;51.434;6.788;2022-07-18T00:50:36;19.30;96.00
9103;DHT22;4587;51.434;6.788;2022-07-18T00:53:02;19.40;96.00
9103;DHT22;4587;51.434;6.788;2022-07-18T00:55:27;19.40;95.80
9103;DHT22;4587;51.434;6.788;2022-07-18T00:57:55;19.30;96.00
9103;DHT22;4587;51.434;6.788;2022-07-18T01:00:22;19.30;96.10
9103;DHT22;4587;51.434;6.788;2022-07-18T01:03:06;19.30;96.30
9103;DHT22;4587;51.434;6.788;2022-07-18T01:05:31;19.30;96.50
9103;DHT22;4587;51.434;6.788;2022-07-18T01:07:57;19.30;96.60
9103;DHT22;4587;51.434;6.788;2022-07-18T01:10:22;19.20;96.90
9103;DHT22;4587;51.434;6.788;2022-07-18T01:12:48;19.20;97.20
9103;DHT22;4587;51.434;6.788;2022-07-18T01:15:14;19.20;97.50
9103;DHT22;4587;51.434;6.788;2022-07-18T01:17:39;19.20;97.70
9103;DHT22;4587;51.434;6.788;2022-07-18T01:20:06;19.20;97.50
9103;DHT22;4587;51.434;6.788;2022-07-18T01:22:32;19.10;97.60
9103;DHT22;4587;51.434;6.788;2022-07-18T01:24:57;19.10;98.00
9103;DHT22;4587;51.434;6.788;2022-07-18T01:27:23;19.00;98.40
9103;DHT22;4587;51.434;6.788;2022-07-18T01:29:50;19.00;98.90
9103;DHT22;4587;51.434;6.788;2022-07-18T01:32:17;19.00;99.60
9103;DHT22;4587;51.434;6.788;2022-07-18T01:34:45;19.00;99.90
9103;DHT22;4587;51.434;6.788;2022-07-18T01:37:11;18.90;99.90
9103;DHT22;4587;51.434;6.788;2022-07-18T01:39:37;18.90;99.90
9103;DHT22;4587;51.434;6.788;2022-07-18T01:42:06;18.80;99.90
9103;DHT22;4587;51.434;6.788;2022-07-18T01:44:33;18.80;99.90
9103;DHT22;4587;51.434;6.788;2022-07-18T01:46:58;18.70;99.90
9103;DHT22;4587;51.434;6.788;2022-07-18T01:49:25;18.70;99.90
9103;DHT22;4587;51.434;6.788;2022-07-18T01:51:52;18.60;99.90
9103;DHT22;4587;51.434;6.788;2022-07-18T01:54:27;18.70;99.90
9103;DHT22;4587;51.434;6.788;2022-07-18T01:56:54;18.60;99.90
9103;DHT22;4587;51.434;6.788;2022-07-18T01:59:20;18.60;99.90
9103;DHT22;4587;51.434;6.788;2022-07-18T02:01:46;18.60;99.90
9103;DHT22;4587;51.434;6.788;2022-07-18T02:04:12;18.60;99.90
9103;DHT22;4587;51.434;6.788;2022-07-18T02:06:38;18.50;99.90
9103;DHT22;4587;51.434;6.788;2022-07-18T02:09:05;18.50;99.90
9103;DHT22;4587;51.434;6.788;2022-07-18T02:11:32;18.40;99.90
9103;DHT22;4587;51.434;6.788;2022-07-18T02:13:58;18.40;99.90
9103;DHT22;4587;51.434;6.788;2022-07-18T02:16:23;18.40;99.90
9103;DHT22;4587;51.434;6.788;2022-07-18T02:18:49;18.40;99.90
9103;DHT22;4587;51.434;6.788;2022-07-18T02:21:15;18.40;99.90
9103;DHT22;4587;51.434;6.788;2022-07-18T02:23:41;18.40;99.90
9103;DHT22;4587;51.434;6.788;2022-07-18T02:26:07;18.30;99.90
9103;DHT22;4587;51.434;6.788;2022-07-18T02:28:33;18.30;99.90
9103;DHT22;4587;51.434;6.788;2022-07-18T02:30:59;18.20;99.90
9103;DHT22;4587;51.434;6.788;2022-07-18T02:33:24;18.20;99.90
9103;DHT22;4587;51.434;6.788;2022-07-18T02:35:50;18.10;99.90
9103;DHT22;4587;51.434;6.788;2022-07-18T02:38:16;18.10;99.90
9103;DHT22;4587;51.434;6.788;2022-07-18T02:40:41;18.00;99.90
9103;DHT22;4587;51.434;6.788;2022-07-18T02:43:08;18.10;99.90
9103;DHT22;4587;51.434;6.788;2022-07-18T02:45:33;18.00;99.90
9103;DHT22;4587;51.434;6.788;2022-07-18T02:47:59;18.00;99.90
9103;DHT22;4587;51.434;6.788;2022-07-18T02:50:25;17.90;99.90
9103;DHT22;4587;51.434;6.788;2022-07-18T02:52:50;17.90;99.90
9103;DHT22;4587;51.434;6.788;2022-07-18T02:55:16;17.90;99.90
9103;DHT22;4587;51.434;6.788;2022-07-18T02:57:42;17.90;99.90
9103;DHT22;4587;51.434;6.788;2022-07-18T03:00:13;17.80;99.90
9103;DHT22;4587;51.434;6.788;2022-07-18T03:02:40;17.80;99.90
9103;DHT22;4587;51.434;6.788;2022-07-18T03:05:06;17.80;99.90
9103;DHT22;4587;51.434;6.788;2022-07-18T03:07:32;17.80;99.90
9103;DHT22;4587;51.434;6.788;2022-07-18T03:09:58;17.70;99.90
9103;DHT22;4587;51.434;6.788;2022-07-18T03:12:24;17.70;99.90
9103;DHT22;4587;51.434;6.788;2022-07-18T03:14:49;17.70;99.90
9103;DHT22;4587;51.434;6.788;2022-07-18T03:17:15;17.70;99.90
9103;DHT22;4587;51.434;6.788;2022-07-18T03:19:41;17.70;99.90
9103;DHT22;4587;51.434;6.788;2022-07-18T03:22:06;17.70;99.90
9103;DHT22;4587;51.434;6.788;2022-07-18T03:24:32;17.70;99.90
9103;DHT22;4587;51.434;6.788;2022-07-18T03:26:58;17.70;99.90
9103;DHT22;4587;51.434;6.788;2022-07-18T03:29:24;17.60;99.90
9103;DHT22;4587;51.434;6.788;2022-07-18T03:31:49;17.70;99.90
9103;DHT22;4587;51.434;6.788;2022-07-18T03:34:15;17.70;99.90
9103;DHT22;4587;51.434;6.788;2022-07-18T03:36:41;17.70;99.90
9103;DHT22;4587;51.434;6.788;2022-07-18T03:39:09;17.60;99.90
9103;DHT22;4587;51.434;6.788;2022-07-18T03:41:36;17.60;99.90
9103;DHT22;4587;51.434;6.788;2022-07-18T03:44:03;17.60;99.90
9103;DHT22;4587;51.434;6.788;2022-07-18T03:46:29;17.60;99.90
9103;DHT22;4587;51.434;6.788;2022-07-18T03:48:55;17.60;99.90
9103;DHT22;4587;51.434;6.788;2022-07-18T03:51:20;17.60;99.90
9103;DHT22;4587;51.434;6.788;2022-07-18T03:53:46;17.60;99.90
9103;DHT22;4587;51.434;6.788;2022-07-18T03:56:11;17.60;99.90
9103;DHT22;4587;51.434;6.788;2022-07-18T03:58:37;17.50;99.90
9103;DHT22;4587;51.434;6.788;2022-07-18T04:01:03;17.50;99.90
9103;DHT22;4587;51.434;6.788;2022-07-18T04:03:29;17.50;99.90
9103;DHT22;4587;51.434;6.788;2022-07-18T04:05:54;17.50;99.90
9103;DHT22;4587;51.434;6.788;2022-07-18T04:08:20;17.50;99.90
9103;DHT22;4587;51.434;6.788;2022-07-18T04:10:46;17.50;99.90
9103;DHT22;4587;51.434;6.788;2022-07-18T04:13:12;17.60;99.90
9103;DHT22;4587;51.434;6.788;2022-07-18T04:15:38;17.60;99.90
9103;DHT22;4587;51.434;6.788;2022-07-18T04:18:05;17.60;99.90
9103;DHT22;4587;51.434;6.788;2022-07-18T04:20:32;17.60;99.90
9103;DHT22;4587;51.434;6.788;2022-07-18T04:23:00;17.60;99.90
9103;DHT22;4587;51.434;6.788;2022-07-18T04:25:29;17.70;99.90
9103;DHT22;4587;51.434;6.788;2022-07-18T04:27:55;17.70;99.90
9103;DHT22;4587;51.434;6.788;2022-07-18T04:30:23;17.70;99.90
9103;DHT22;4587;51.434;6.788;2022-07-18T04:32:49;17.70;99.90
9103;DHT22;4587;51.434;6.788;2022-07-18T04:35:17;17.80;99.90
9103;DHT22;4587;51.434;6.788;2022-07-18T04:37:43;17.80;99.90
9103;DHT22;4587;51.434;6.788;2022-07-18T04:40:09;17.80;99.90
9103;DHT22;4587;51.434;6.788;2022-07-18T04:42:36;17.90;99.90
9103;DHT22;4587;51.434;6.788;2022-07-18T04:45:03;17.80;99.90
9103;DHT22;4587;51.434;6.788;2022-07-18T04:47:30;17.90;99.90
9103;DHT22;4587;51.434;6.788;2022-07-18T04:49:55;17.90;99.90
9103;DHT22;4587;51.434;6.788;2022-07-18T04:52:21;17.90;99.90
9103;DHT22;4587;51.434;6.788;2022-07-18T04:54:47;17.90;99.90
9103;DHT22;4587;51.434;6.788;2022-07-18T04:57:13;18.00;99.90
9103;DHT22;4587;51.434;6.788;2022-07-18T04:59:41;18.00;99.90
9103;DHT22;4587;51.434;6.788;2022-07-18T05:02:07;18.10;99.90
9103;DHT22;4587;51.434;6.788;2022-07-18T05:04:33;18.10;99.90
9103;DHT22;4587;51.434;6.788;2022-07-18T05:06:59;18.20;99.90
9103;DHT22;4587;51.434;6.788;2022-07-18T05:09:25;18.20;99.90
9103;DHT22;4587;51.434;6.788;2022-07-18T05:11:51;18.20;99.90
9103;DHT22;4587;51.434;6.788;2022-07-18T05:14:17;18.30;99.90
9103;DHT22;4587;51.434;6.788;2022-07-18T05:16:42;18.40;99.90
9103;DHT22;4587;51.434;6.788;2022-07-18T05:19:08;18.40;99.90
9103;DHT22;4587;51.434;6.788;2022-07-18T05:21:34;18.60;99.90
9103;DHT22;4587;51.434;6.788;2022-07-18T05:23:59;18.70;99.90
9103;DHT22;4587;51.434;6.788;2022-07-18T05:26:25;18.80;99.90
9103;DHT22;4587;51.434;6.788;2022-07-18T05:28:51;19.00;99.90
9103;DHT22;4587;51.434;6.788;2022-07-18T05:31:16;19.20;99.90
9103;DHT22;4587;51.434;6.788;2022-07-18T05:33:42;19.50;99.90
9103;DHT22;4587;51.434;6.788;2022-07-18T05:36:08;19.60;99.90
9103;DHT22;4587;51.434;6.788;2022-07-18T05:38:34;19.60;99.90
9103;DHT22;4587;51.434;6.788;2022-07-18T05:40:59;19.70;99.90
9103;DHT22;4587;51.434;6.788;2022-07-18T05:43:25;19.90;99.90
9103;DHT22;4587;51.434;6.788;2022-07-18T05:45:50;20.10;99.90
9103;DHT22;4587;51.434;6.788;2022-07-18T05:48:16;20.50;99.90
9103;DHT22;4587;51.434;6.788;2022-07-18T05:50:42;20.80;99.90
9103;DHT22;4587;51.434;6.788;2022-07-18T05:53:07;20.90;99.90
9103;DHT22;4587;51.434;6.788;2022-07-18T05:55:33;20.90;99.90
9103;DHT22;4587;51.434;6.788;2022-07-18T05:57:58;20.80;99.90
9103;DHT22;4587;51.434;6.788;2022-07-18T06:00:24;20.80;99.90
9103;DHT22;4587;51.434;6.788;2022-07-18T06:02:50;20.90;99.90
9103;DHT22;4587;51.434;6.788;2022-07-18T06:05:16;21.00;99.90
9103;DHT22;4587;51.434;6.788;2022-07-18T06:07:42;21.00;99.90
9103;DHT22;4587;51.434;6.788;2022-07-18T06:10:08;21.00;99.90
9103;DHT22;4587;51.434;6.788;2022-07-18T06:12:34;21.10;99.90
9103;DHT22;4587;51.434;6.788;2022-07-18T06:15:00;21.20;99.90
9103;DHT22;4587;51.434;6.788;2022-07-18T06:17:25;21.30;99.90
9103;DHT22;4587;51.434;6.788;2022-07-18T06:19:53;21.40;99.90
9103;DHT22;4587;51.434;6.788;2022-07-18T06:22:20;21.40;99.90
9103;DHT22;4587;51.434;6.788;2022-07-18T06:24:45;21.60;99.90
9103;DHT22;4587;51.434;6.788;2022-07-18T06:27:11;21.60;99.90
9103;DHT22;4587;51.434;6.788;2022-07-18T06:29:36;21.80;99.90
9103;DHT22;4587;51.434;6.788;2022-07-18T06:32:02;21.90;99.90
9103;DHT22;4587;51.434;6.788;2022-07-18T06:34:28;22.20;99.90
9103;DHT22;4587;51.434;6.788;2022-07-18T06:36:53;22.40;99.40
9103;DHT22;4587;51.434;6.788;2022-07-18T06:39:19;22.90;98.70
9103;DHT22;4587;51.434;6.788;2022-07-18T06:41:44;23.20;98.40
9103;DHT22;4587;51.434;6.788;2022-07-18T06:44:11;23.60;97.90
9103;DHT22;4587;51.434;6.788;2022-07-18T06:46:36;24.70;97.30
9103;DHT22;4587;51.434;6.788;2022-07-18T06:49:04;26.50;94.80
9103;DHT22;4587;51.434;6.788;2022-07-18T06:51:30;28.40;91.50
9103;DHT22;4587;51.434;6.788;2022-07-18T06:53:56;30.00;85.80
9103;DHT22;4587;51.434;6.788;2022-07-18T06:56:22;31.50;79.00
9103;DHT22;4587;51.434;6.788;2022-07-18T06:58:48;32.70;70.50
9103;DHT22;4587;51.434;6.788;2022-07-18T07:01:18;33.70;65.30
9103;DHT22;4587;51.434;6.788;2022-07-18T07:03:44;34.50;61.10
9103;DHT22;4587;51.434;6.788;2022-07-18T07:06:10;35.40;58.70
9103;DHT22;4587;51.434;6.788;2022-07-18T07:08:36;36.20;56.50
9103;DHT22;4587;51.434;6.788;2022-07-18T07:11:02;37.10;54.20
9103;DHT22;4587;51.434;6.788;2022-07-18T07:13:27;37.90;52.50
9103;DHT22;4587;51.434;6.788;2022-07-18T07:15:53;38.80;49.70
9103;DHT22;4587;51.434;6.788;2022-07-18T07:18:19;39.40;48.20
9103;DHT22;4587;51.434;6.788;2022-07-18T07:20:47;39.00;46.50
9103;DHT22;4587;51.434;6.788;2022-07-18T07:23:13;38.90;46.80
9103;DHT22;4587;51.434;6.788;2022-07-18T07:25:39;39.40;46.20
9103;DHT22;4587;51.434;6.788;2022-07-18T07:28:05;39.70;45.40
9103;DHT22;4587;51.434;6.788;2022-07-18T07:30:32;39.40;44.80
9103;DHT22;4587;51.434;6.788;2022-07-18T07:32:58;39.10;44.70
9103;DHT22;4587;51.434;6.788;2022-07-18T07:35:24;38.80;44.40
9103;DHT22;4587;51.434;6.788;2022-07-18T07:37:55;39.20;44.20
9103;DHT22;4587;51.434;6.788;2022-07-18T07:40:22;39.60;43.60
9103;DHT22;4587;51.434;6.788;2022-07-18T07:42:50;40.00;43.00
9103;DHT22;4587;51.434;6.788;2022-07-18T07:45:16;40.30;42.40
9103;DHT22;4587;51.434;6.788;2022-07-18T07:47:42;40.10;42.70
9103;DHT22;4587;51.434;6.788;2022-07-18T07:50:09;40.30;42.50
9103;DHT22;4587;51.434;6.788;2022-07-18T07:52:36;40.40;42.70
9103;DHT22;4587;51.434;6.788;2022-07-18T07:55:03;41.10;42.30
9103;DHT22;4587;51.434;6.788;2022-07-18T07:57:28;41.60;41.70
9103;DHT22;4587;51.434;6.788;2022-07-18T07:59:54;41.90;41.70
9103;DHT22;4587;51.434;6.788;2022-07-18T08:02:19;42.20;40.70
9103;DHT22;4587;51.434;6.788;2022-07-18T08:04:45;42.10;40.50
9103;DHT22;4587;51.434;6.788;2022-07-18T08:07:11;42.50;40.10
9103;DHT22;4587;51.434;6.788;2022-07-18T08:09:37;42.60;39.90
9103;DHT22;4587;51.434;6.788;2022-07-18T08:12:04;42.40;40.10
9103;DHT22;4587;51.434;6.788;2022-07-18T08:14:30;41.60;39.90
9103;DHT22;4587;51.434;6.788;2022-07-18T08:16:59;41.00;39.90
9103;DHT22;4587;51.434;6.788;2022-07-18T08:19:24;39.60;40.90
9103;DHT22;4587;51.434;6.788;2022-07-18T08:21:50;38.00;42.10
9103;DHT22;4587;51.434;6.788;2022-07-18T08:24:15;36.60;42.80
9103;DHT22;4587;51.434;6.788;2022-07-18T08:26:41;35.60;44.00
9103;DHT22;4587;51.434;6.788;2022-07-18T08:29:07;34.60;45.20
9103;DHT22;4587;51.434;6.788;2022-07-18T08:31:33;33.90;45.80
9103;DHT22;4587;51.434;6.788;2022-07-18T08:33:59;33.30;46.80
9103;DHT22;4587;51.434;6.788;2022-07-18T08:36:25;33.00;47.30
9103;DHT22;4587;51.434;6.788;2022-07-18T08:38:51;32.70;47.90
9103;DHT22;4587;51.434;6.788;2022-07-18T08:41:17;32.40;48.00
9103;DHT22;4587;51.434;6.788;2022-07-18T08:43:46;32.10;48.30
9103;DHT22;4587;51.434;6.788;2022-07-18T08:46:13;31.80;48.40
9103;DHT22;4587;51.434;6.788;2022-07-18T08:48:39;31.70;49.10
9103;DHT22;4587;51.434;6.788;2022-07-18T08:51:07;31.50;49.00
9103;DHT22;4587;51.434;6.788;2022-07-18T08:53:33;31.50;49.60
9103;DHT22;4587;51.434;6.788;2022-07-18T08:56:00;31.40;49.90
9103;DHT22;4587;51.434;6.788;2022-07-18T08:58:25;31.40;49.70
9103;DHT22;4587;51.434;6.788;2022-07-18T09:00:51;31.40;49.70
9103;DHT22;4587;51.434;6.788;2022-07-18T09:03:17;31.50;49.60
9103;DHT22;4587;51.434;6.788;2022-07-18T09:05:42;31.60;50.20
9103;DHT22;4587;51.434;6.788;2022-07-18T09:08:19;31.60;49.70
9103;DHT22;4587;51.434;6.788;2022-07-18T09:10:57;31.50;49.60
9103;DHT22;4587;51.434;6.788;2022-07-18T09:13:36;31.40;50.10
9103;DHT22;4587;51.434;6.788;2022-07-18T09:16:11;31.30;50.00
9103;DHT22;4587;51.434;6.788;2022-07-18T09:18:39;31.30;50.30
9103;DHT22;4587;51.434;6.788;2022-07-18T09:21:07;31.30;49.80
9103;DHT22;4587;51.434;6.788;2022-07-18T09:23:36;31.30;49.80
9103;DHT22;4587;51.434;6.788;2022-07-18T09:26:03;31.30;49.40
9103;DHT22;4587;51.434;6.788;2022-07-18T09:28:46;31.40;50.10
9103;DHT22;4587;51.434;6.788;2022-07-18T09:31:23;31.50;49.60
9103;DHT22;4587;51.434;6.788;2022-07-18T09:33:58;31.40;49.80
9103;DHT22;4587;51.434;6.788;2022-07-18T09:36:24;31.40;49.50
9103;DHT22;4587;51.434;6.788;2022-07-18T09:38:51;31.40;49.80
9103;DHT22;4587;51.434;6.788;2022-07-18T09:41:30;31.40;49.70
9103;DHT22;4587;51.434;6.788;2022-07-18T09:43:56;31.40;49.20
9103;DHT22;4587;51.434;6.788;2022-07-18T09:46:22;31.40;48.90
9103;DHT22;4587;51.434;6.788;2022-07-18T09:48:48;31.50;49.00
9103;DHT22;4587;51.434;6.788;2022-07-18T09:51:32;31.60;49.10
9103;DHT22;4587;51.434;6.788;2022-07-18T09:53:58;31.70;49.00
9103;DHT22;4587;51.434;6.788;2022-07-18T09:56:26;31.70;49.00
9103;DHT22;4587;51.434;6.788;2022-07-18T09:58:55;31.70;47.70
9103;DHT22;4587;51.434;6.788;2022-07-18T10:01:21;31.70;48.10
9103;DHT22;4587;51.434;6.788;2022-07-18T10:03:47;31.70;48.80
9103;DHT22;4587;51.434;6.788;2022-07-18T10:06:16;31.80;47.50
9103;DHT22;4587;51.434;6.788;2022-07-18T10:08:42;31.70;45.80
9103;DHT22;4587;51.434;6.788;2022-07-18T10:11:08;31.70;46.50
9103;DHT22;4587;51.434;6.788;2022-07-18T10:13:36;31.70;46.70
9103;DHT22;4587;51.434;6.788;2022-07-18T10:16:03;31.60;46.40
9103;DHT22;4587;51.434;6.788;2022-07-18T10:18:32;31.60;46.70
9103;DHT22;4587;51.434;6.788;2022-07-18T10:23:33;31.70;47.20
9103;DHT22;4587;51.434;6.788;2022-07-18T10:26:19;31.70;47.00
9103;DHT22;4587;51.434;6.788;2022-07-18T10:31:26;31.80;46.30
9103;DHT22;4587;51.434;6.788;2022-07-18T10:33:53;31.90;46.40
9103;DHT22;4587;51.434;6.788;2022-07-18T10:36:20;31.90;46.40
9103;DHT22;4587;51.434;6.788;2022-07-18T10:39:10;31.80;45.90
9103;DHT22;4587;51.434;6.788;2022-07-18T10:44:35;31.90;46.40
9103;DHT22;4587;51.434;6.788;2022-07-18T10:58:14;31.80;46.60
9103;DHT22;4587;51.434;6.788;2022-07-18T11:00:37;31.80;47.10
9103;DHT22;4587;51.434;6.788;2022-07-18T11:03:07;31.80;46.80
9103;DHT22;4587;51.434;6.788;2022-07-18T11:05:35;31.80;46.60
9103;DHT22;4587;51.434;6.788;2022-07-18T11:21:30;32.00;46.90
9103;DHT22;4587;51.434;6.788;2022-07-18T11:24:10;32.00;46.40
9103;DHT22;4587;51.434;6.788;2022-07-18T11:26:44;32.00;46.40
9103;DHT22;4587;51.434;6.788;2022-07-18T11:29:12;32.00;47.30
9103;DHT22;4587;51.434;6.788;2022-07-18T11:34:12;32.10;46.70
9103;DHT22;4587;51.434;6.788;2022-07-18T11:36:40;32.10;46.70
9103;DHT22;4587;51.434;6.788;2022-07-18T11:39:06;32.10;46.20
9103;DHT22;4587;51.434;6.788;2022-07-18T11:41:32;32.10;46.60
9103;DHT22;4587;51.434;6.788;2022-07-18T11:43:58;32.00;46.30
9103;DHT22;4587;51.434;6.788;2022-07-18T11:46:26;32.00;46.20
9103;DHT22;4587;51.434;6.788;2022-07-18T11:48:59;31.80;46.80
9103;DHT22;4587;51.434;6.788;2022-07-18T11:51:25;31.70;47.00
9103;DHT22;4587;51.434;6.788;2022-07-18T11:53:58;31.60;47.10
9103;DHT22;4587;51.434;6.788;2022-07-18T11:56:24;31.60;47.40
9103;DHT22;4587;51.434;6.788;2022-07-18T11:58:50;31.60;46.60
9103;DHT22;4587;51.434;6.788;2022-07-18T12:01:17;31.70;47.00
9103;DHT22;4587;51.434;6.788;2022-07-18T12:03:48;31.80;46.80
9103;DHT22;4587;51.434;6.788;2022-07-18T12:06:21;31.90;46.70
9103;DHT22;4587;51.434;6.788;2022-07-18T12:08:52;32.00;47.00
9103;DHT22;4587;51.434;6.788;2022-07-18T12:13:59;32.10;46.60
9103;DHT22;4587;51.434;6.788;2022-07-18T12:18:57;32.00;45.20
9103;DHT22;4587;51.434;6.788;2022-07-18T12:21:24;32.10;46.00
9103;DHT22;4587;51.434;6.788;2022-07-18T12:23:50;32.20;46.60
9103;DHT22;4587;51.434;6.788;2022-07-18T12:26:31;32.20;46.50
9103;DHT22;4587;51.434;6.788;2022-07-18T12:29:05;32.30;46.20
9103;DHT22;4587;51.434;6.788;2022-07-18T12:31:43;32.40;45.30
9103;DHT22;4587;51.434;6.788;2022-07-18T12:34:16;32.40;46.10
9103;DHT22;4587;51.434;6.788;2022-07-18T12:36:56;32.50;46.50
9103;DHT22;4587;51.434;6.788;2022-07-18T12:39:32;32.50;46.70
9103;DHT22;4587;51.434;6.788;2022-07-18T12:41:58;32.70;46.60
9103;DHT22;4587;51.434;6.788;2022-07-18T12:44:25;32.80;46.00
9103;DHT22;4587;51.434;6.788;2022-07-18T12:46:51;32.70;45.90
9103;DHT22;4587;51.434;6.788;2022-07-18T12:49:17;32.70;45.90
9103;DHT22;4587;51.434;6.788;2022-07-18T12:51:42;32.60;46.60
9103;DHT22;4587;51.434;6.788;2022-07-18T12:54:08;32.70;46.70
9103;DHT22;4587;51.434;6.788;2022-07-18T12:56:34;32.70;46.50
9103;DHT22;4587;51.434;6.788;2022-07-18T12:59:00;32.60;46.30
9103;DHT22;4587;51.434;6.788;2022-07-18T13:01:25;32.50;46.50
9103;DHT22;4587;51.434;6.788;2022-07-18T13:03:51;32.60;46.80
9103;DHT22;4587;51.434;6.788;2022-07-18T13:06:16;32.60;46.70
9103;DHT22;4587;51.434;6.788;2022-07-18T13:08:42;32.60;47.20
9103;DHT22;4587;51.434;6.788;2022-07-18T13:11:08;32.70;47.20
9103;DHT22;4587;51.434;6.788;2022-07-18T13:13:34;32.70;47.10
9103;DHT22;4587;51.434;6.788;2022-07-18T13:15:59;32.70;47.10
9103;DHT22;4587;51.434;6.788;2022-07-18T13:18:25;32.70;46.90
9103;DHT22;4587;51.434;6.788;2022-07-18T13:20:50;32.70;46.50
9103;DHT22;4587;51.434;6.788;2022-07-18T13:23:16;32.70;46.60
9103;DHT22;4587;51.434;6.788;2022-07-18T13:25:42;32.60;46.50
9103;DHT22;4587;51.434;6.788;2022-07-18T13:28:08;32.60;46.90
9103;DHT22;4587;51.434;6.788;2022-07-18T13:30:33;32.50;47.10
9103;DHT22;4587;51.434;6.788;2022-07-18T13:32:59;32.50;46.90
9103;DHT22;4587;51.434;6.788;2022-07-18T13:35:25;32.50;47.00
9103;DHT22;4587;51.434;6.788;2022-07-18T13:37:51;32.60;47.70
9103;DHT22;4587;51.434;6.788;2022-07-18T13:40:16;32.60;47.60
9103;DHT22;4587;51.434;6.788;2022-07-18T13:42:44;32.70;47.10
9103;DHT22;4587;51.434;6.788;2022-07-18T13:45:10;32.70;47.10
9103;DHT22;4587;51.434;6.788;2022-07-18T13:47:35;32.70;47.40
9103;DHT22;4587;51.434;6.788;2022-07-18T13:50:02;32.70;46.40
9103;DHT22;4587;51.434;6.788;2022-07-18T13:52:27;32.80;46.90
9103;DHT22;4587;51.434;6.788;2022-07-18T13:54:53;32.90;46.70
9103;DHT22;4587;51.434;6.788;2022-07-18T13:57:21;32.90;46.80
9103;DHT22;4587;51.434;6.788;2022-07-18T13:59:46;32.90;46.90
9103;DHT22;4587;51.434;6.788;2022-07-18T14:02:12;32.90;46.50
9103;DHT22;4587;51.434;6.788;2022-07-18T14:04:38;32.90;46.70
9103;DHT22;4587;51.434;6.788;2022-07-18T14:07:03;32.90;46.90
9103;DHT22;4587;51.434;6.788;2022-07-18T14:09:31;32.90;46.60
9103;DHT22;4587;51.434;6.788;2022-07-18T14:11:56;32.90;46.80
9103;DHT22;4587;51.434;6.788;2022-07-18T14:14:22;33.00;47.30
9103;DHT22;4587;51.434;6.788;2022-07-18T14:16:47;33.00;47.00
9103;DHT22;4587;51.434;6.788;2022-07-18T14:19:13;33.00;47.00
9103;DHT22;4587;51.434;6.788;2022-07-18T14:21:38;32.90;46.90
9103;DHT22;4587;51.434;6.788;2022-07-18T14:24:05;32.90;46.80
9103;DHT22;4587;51.434;6.788;2022-07-18T14:26:30;32.90;47.00
9103;DHT22;4587;51.434;6.788;2022-07-18T14:28:56;32.90;46.60
9103;DHT22;4587;51.434;6.788;2022-07-18T14:31:21;32.90;46.90
9103;DHT22;4587;51.434;6.788;2022-07-18T14:33:47;32.90;46.50
9103;DHT22;4587;51.434;6.788;2022-07-18T14:36:14;32.90;46.40
9103;DHT22;4587;51.434;6.788;2022-07-18T14:38:39;32.90;46.20
9103;DHT22;4587;51.434;6.788;2022-07-18T14:41:06;32.80;46.50
9103;DHT22;4587;51.434;6.788;2022-07-18T14:43:31;32.90;46.60
9103;DHT22;4587;51.434;6.788;2022-07-18T14:45:57;32.80;46.70
9103;DHT22;4587;51.434;6.788;2022-07-18T14:48:23;32.90;47.10
9103;DHT22;4587;51.434;6.788;2022-07-18T14:50:48;32.90;47.20
9103;DHT22;4587;51.434;6.788;2022-07-18T14:53:14;33.00;46.90
9103;DHT22;4587;51.434;6.788;2022-07-18T14:55:39;33.00;47.00
9103;DHT22;4587;51.434;6.788;2022-07-18T14:58:05;33.00;47.80
9103;DHT22;4587;51.434;6.788;2022-07-18T15:00:31;33.00;46.80
9103;DHT22;4587;51.434;6.788;2022-07-18T15:02:56;33.00;46.80
9103;DHT22;4587;51.434;6.788;2022-07-18T15:05:22;33.00;46.90
9103;DHT22;4587;51.434;6.788;2022-07-18T15:07:47;33.10;46.80
9103;DHT22;4587;51.434;6.788;2022-07-18T15:10:13;33.10;46.70
9103;DHT22;4587;51.434;6.788;2022-07-18T15:12:39;33.00;46.10
9103;DHT22;4587;51.434;6.788;2022-07-18T15:15:06;33.00;46.30
9103;DHT22;4587;51.434;6.788;2022-07-18T15:17:32;32.90;46.20
9103;DHT22;4587;51.434;6.788;2022-07-18T15:19:57;32.80;45.90
9103;DHT22;4587;51.434;6.788;2022-07-18T15:22:23;32.70;45.90
9103;DHT22;4587;51.434;6.788;2022-07-18T15:24:49;32.70;46.40
9103;DHT22;4587;51.434;6.788;2022-07-18T15:27:15;32.70;47.10
9103;DHT22;4587;51.434;6.788;2022-07-18T15:29:40;32.70;46.80
9103;DHT22;4587;51.434;6.788;2022-07-18T15:32:06;32.70;46.20
9103;DHT22;4587;51.434;6.788;2022-07-18T15:34:36;32.70;46.50
9103;DHT22;4587;51.434;6.788;2022-07-18T15:37:02;32.80;46.70
9103;DHT22;4587;51.434;6.788;2022-07-18T15:39:28;32.70;46.70
9103;DHT22;4587;51.434;6.788;2022-07-18T15:41:53;32.80;46.90
9103;DHT22;4587;51.434;6.788;2022-07-18T15:44:19;32.80;46.40
9103;DHT22;4587;51.434;6.788;2022-07-18T15:46:44;32.80;45.90
9103;DHT22;4587;51.434;6.788;2022-07-18T15:49:10;32.70;46.10
9103;DHT22;4587;51.434;6.788;2022-07-18T15:51:35;32.70;46.00
9103;DHT22;4587;51.434;6.788;2022-07-18T15:54:03;32.70;46.50
9103;DHT22;4587;51.434;6.788;2022-07-18T15:56:29;32.70;46.30
9103;DHT22;4587;51.434;6.788;2022-07-18T15:58:55;32.70;46.40
9103;DHT22;4587;51.434;6.788;2022-07-18T16:01:20;32.70;46.60
9103;DHT22;4587;51.434;6.788;2022-07-18T16:03:46;32.80;46.20
9103;DHT22;4587;51.434;6.788;2022-07-18T16:06:12;32.70;46.30
9103;DHT22;4587;51.434;6.788;2022-07-18T16:08:37;32.70;46.30
9103;DHT22;4587;51.434;6.788;2022-07-18T16:11:03;32.70;46.50
9103;DHT22;4587;51.434;6.788;2022-07-18T16:13:29;32.70;46.50
9103;DHT22;4587;51.434;6.788;2022-07-18T16:15:56;32.70;46.60
9103;DHT22;4587;51.434;6.788;2022-07-18T16:18:21;32.70;46.70
9103;DHT22;4587;51.434;6.788;2022-07-18T16:20:47;32.70;46.20
9103;DHT22;4587;51.434;6.788;2022-07-18T16:23:13;32.70;46.20
9103;DHT22;4587;51.434;6.788;2022-07-18T16:25:38;32.60;46.40
9103;DHT22;4587;51.434;6.788;2022-07-18T16:28:05;32.60;47.10
9103;DHT22;4587;51.434;6.788;2022-07-18T16:30:31;32.60;47.20
9103;DHT22;4587;51.434;6.788;2022-07-18T16:32:57;32.60;47.30
9103;DHT22;4587;51.434;6.788;2022-07-18T16:35:22;32.50;46.70
9103;DHT22;4587;51.434;6.788;2022-07-18T16:37:48;32.50;46.30
9103;DHT22;4587;51.434;6.788;2022-07-18T16:40:15;32.50;46.40